sensor_id;sensor_type;location;lat;lon;timestamp;pressure;altitude;pressure_sealevel;temperature;humidity
49072;BME280;52656;52.610;10.236;2023-05-24T00:01:56;101656.03;;;7.15;74.07
49072;BME280;52656;52.610;10.236;2023-05-24T00:04:21;101656.97;;;7.10;75.85
49072;BME280;52656;52.610;10.236;2023-05-24T00:06:49;101661.34;;;7.11;75.96
49072;BME280;52656;52.610;10.236;2023-05-24T00:09:14;101655.25;;;7.09;77.46
49072;BME280;52656;52.610;10.236;2023-05-24T00:11:40;101660.41;;;7.18;76.22
49072;BME280;52656;52.610;10.236;2023-05-24T00:14:05;101660.38;;;7.20;77.14
49072;BME280;52656;52.610;10.236;2023-05-24T00:16:30;101655.09;;;7.23;76.04
49072;BME280;52656;52.610;10.236;2023-05-24T00:18:56;101654.13;;;7.30;76.41
49072;BME280;52656;52.610;10.236;2023-05-24T00:21:22;101659.34;;;7.33;76.30
49072;BME280;52656;52.610;10.236;2023-05-24T00:23:47;101656.75;;;7.31;75.56
49072;BME280;52656;52.610;10.236;2023-05-24T00:26:16;101656.81;;;7.27;75.37
49072;BME280;52656;52.610;10.236;2023-05-24T00:28:41;101655.06;;;7.24;75.87
49072;BME280;52656;52.610;10.236;2023-05-24T00:31:07;101649.91;;;7.15;76.73
49072;BME280;52656;52.610;10.236;2023-05-24T00:33:32;101648.84;;;7.30;75.70
49072;BME280;52656;52.610;10.236;2023-05-24T00:35:57;101646.16;;;7.36;75.69
49072;BME280;52656;52.610;10.236;2023-05-24T00:38:24;101640.81;;;7.39;75.10
49072;BME280;52656;52.610;10.236;2023-05-24T00:40:51;101637.25;;;7.43;75.37
49072;BME280;52656;52.610;10.236;2023-05-24T00:43:16;101635.41;;;7.51;75.27
49072;BME280;52656;52.610;10.236;2023-05-24T00:45:43;101642.50;;;7.45;75.71
49072;BME280;52656;52.610;10.236;2023-05-24T00:48:08;101632.75;;;7.54;75.50
49072;BME280;52656;52.610;10.236;2023-05-24T00:50:36;101634.38;;;7.61;75.35
49072;BME280;52656;52.610;10.236;2023-05-24T00:53:02;101637.03;;;7.63;75.59
49072;BME280;52656;52.610;10.236;2023-05-24T00:55:29;101630.81;;;7.65;75.28
49072;BME280;52656;52.610;10.236;2023-05-24T00:57:56;101630.78;;;7.67;75.23
49072;BME280;52656;52.610;10.236;2023-05-24T01:00:22;101636.97;;;7.68;76.17
49072;BME280;52656;52.610;10.236;2023-05-24T01:02:48;101632.41;;;7.79;75.04
49072;BME280;52656;52.610;10.236;2023-05-24T01:05:15;101627.91;;;7.85;73.97
49072;BME280;52656;52.610;10.236;2023-05-24T01:08:03;101619.13;;;7.86;74.98
49072;BME280;52656;52.610;10.236;2023-05-24T01:10:40;101625.13;;;7.95;73.09
49072;BME280;52656;52.610;10.236;2023-05-24T01:13:11;101624.22;;;7.97;74.18
49072;BME280;52656;52.610;10.236;2023-05-24T01:15:44;101615.47;;;7.95;73.86
49072;BME280;52656;52.610;10.236;2023-05-24T01:20:44;101628.66;;;7.94;74.13
49072;BME280;52656;52.610;10.236;2023-05-24T01:23:23;101626.88;;;7.96;73.95
49072;BME280;52656;52.610;10.236;2023-05-24T01:26:17;101620.13;;;7.78;75.44
49072;BME280;52656;52.610;10.236;2023-05-24T01:28:44;101621.75;;;7.85;75.13
49072;BME280;52656;52.610;10.236;2023-05-24T01:31:11;101612.97;;;7.84;74.01
49072;BME280;52656;52.610;10.236;2023-05-24T01:33:42;101613.16;;;7.72;75.28
49072;BME280;52656;52.610;10.236;2023-05-24T01:36:08;101606.06;;;7.76;74.81
49072;BME280;52656;52.610;10.236;2023-05-24T01:38:33;101613.13;;;7.74;75.17
49072;BME280;52656;52.610;10.236;2023-05-24T01:41:35;101606.06;;;7.77;74.99
49072;BME280;52656;52.610;10.236;2023-05-24T01:46:55;101614.78;;;7.81;73.75
49072;BME280;52656;52.610;10.236;2023-05-24T01:49:27;101613.00;;;7.83;74.52
49072;BME280;52656;52.610;10.236;2023-05-24T01:52:10;101610.50;;;7.74;75.37
49072;BME280;52656;52.610;10.236;2023-05-24T01:54:37;101602.44;;;7.83;74.40
49072;BME280;52656;52.610;10.236;2023-05-24T01:57:06;101606.94;;;7.78;75.29
49072;BME280;52656;52.610;10.236;2023-05-24T01:59:32;101604.25;;;7.79;74.01
49072;BME280;52656;52.610;10.236;2023-05-24T02:01:59;101599.00;;;7.76;74.55
49072;BME280;52656;52.610;10.236;2023-05-24T02:04:24;101593.81;;;7.72;75.40
49072;BME280;52656;52.610;10.236;2023-05-24T02:06:50;101585.97;;;7.69;75.19
49072;BME280;52656;52.610;10.236;2023-05-24T02:09:15;101587.78;;;7.62;75.28
49072;BME280;52656;52.610;10.236;2023-05-24T02:11:40;101582.59;;;7.57;76.07
49072;BME280;52656;52.610;10.236;2023-05-24T02:14:06;101595.78;;;7.59;75.17
49072;BME280;52656;52.610;10.236;2023-05-24T02:16:31;101589.63;;;7.58;76.11
49072;BME280;52656;52.610;10.236;2023-05-24T02:18:57;101587.06;;;7.54;76.09
49072;BME280;52656;52.610;10.236;2023-05-24T02:21:22;101587.97;;;7.48;75.15
49072;BME280;52656;52.610;10.236;2023-05-24T02:23:48;101581.00;;;7.44;76.40
49072;BME280;52656;52.610;10.236;2023-05-24T02:26:14;101589.00;;;7.38;76.83
49072;BME280;52656;52.610;10.236;2023-05-24T02:28:42;101589.09;;;7.30;77.39
49072;BME280;52656;52.610;10.236;2023-05-24T02:31:07;101584.81;;;7.22;77.71
49072;BME280;52656;52.610;10.236;2023-05-24T02:33:32;101578.72;;;7.18;76.93
49072;BME280;52656;52.610;10.236;2023-05-24T02:35:59;101577.88;;;7.14;77.76
49072;BME280;52656;52.610;10.236;2023-05-24T02:38:25;101577.03;;;7.12;77.33
49072;BME280;52656;52.610;10.236;2023-05-24T02:40:50;101576.16;;;7.13;76.02
49072;BME280;52656;52.610;10.236;2023-05-24T02:43:16;101577.97;;;7.08;77.13
49072;BME280;52656;52.610;10.236;2023-05-24T02:45:41;101584.97;;;7.09;77.53
49072;BME280;52656;52.610;10.236;2023-05-24T02:48:06;101584.13;;;7.06;78.35
49072;BME280;52656;52.610;10.236;2023-05-24T02:50:32;101584.16;;;7.04;77.72
49072;BME280;52656;52.610;10.236;2023-05-24T02:52:57;101580.72;;;6.98;77.82
49072;BME280;52656;52.610;10.236;2023-05-24T02:55:22;101584.19;;;7.01;76.99
49072;BME280;52656;52.610;10.236;2023-05-24T02:57:48;101582.41;;;7.03;76.64
49072;BME280;52656;52.610;10.236;2023-05-24T03:00:14;101580.63;;;7.05;78.31
49072;BME280;52656;52.610;10.236;2023-05-24T03:02:40;101582.28;;;7.14;76.82
49072;BME280;52656;52.610;10.236;2023-05-24T03:05:06;101584.94;;;7.11;77.90
49072;BME280;52656;52.610;10.236;2023-05-24T03:07:32;101581.44;;;7.10;77.92
49072;BME280;52656;52.610;10.236;2023-05-24T03:09:57;101578.84;;;7.09;77.83
49072;BME280;52656;52.610;10.236;2023-05-24T03:12:23;101575.34;;;7.08;78.09
49072;BME280;52656;52.610;10.236;2023-05-24T03:14:48;101584.13;;;7.09;77.72
49072;BME280;52656;52.610;10.236;2023-05-24T03:17:13;101582.41;;;7.05;79.47
49072;BME280;52656;52.610;10.236;2023-05-24T03:19:38;101581.53;;;7.04;78.89
49072;BME280;52656;52.610;10.236;2023-05-24T03:22:04;101581.56;;;7.01;79.68
49072;BME280;52656;52.610;10.236;2023-05-24T03:24:29;101579.75;;;7.03;79.74
49072;BME280;52656;52.610;10.236;2023-05-24T03:26:55;101581.63;;;6.97;81.81
49072;BME280;52656;52.610;10.236;2023-05-24T03:29:20;101581.41;;;7.12;81.33
49072;BME280;52656;52.610;10.236;2023-05-24T03:31:46;101583.09;;;7.19;79.60
49072;BME280;52656;52.610;10.236;2023-05-24T03:34:11;101584.72;;;7.29;79.53
49072;BME280;52656;52.610;10.236;2023-05-24T03:36:37;101578.53;;;7.33;79.28
49072;BME280;52656;52.610;10.236;2023-05-24T03:39:02;101583.66;;;7.46;79.07
49072;BME280;52656;52.610;10.236;2023-05-24T03:41:29;101579.13;;;7.55;77.60
49072;BME280;52656;52.610;10.236;2023-05-24T03:43:54;101579.88;;;7.63;77.55
49072;BME280;52656;52.610;10.236;2023-05-24T03:46:20;101581.56;;;7.69;77.18
49072;BME280;52656;52.610;10.236;2023-05-24T03:48:45;101575.38;;;7.70;77.16
49072;BME280;52656;52.610;10.236;2023-05-24T03:51:10;101579.69;;;7.77;77.09
49072;BME280;52656;52.610;10.236;2023-05-24T03:53:36;101574.41;;;7.76;78.42
49072;BME280;52656;52.610;10.236;2023-05-24T03:56:01;101577.88;;;7.79;77.89
49072;BME280;52656;52.610;10.236;2023-05-24T03:58:26;101582.31;;;7.76;78.47
49072;BME280;52656;52.610;10.236;2023-05-24T04:00:52;101580.56;;;7.78;78.61
49072;BME280;52656;52.610;10.236;2023-05-24T04:03:17;101579.53;;;7.85;76.99
49072;BME280;52656;52.610;10.236;2023-05-24T04:05:44;101583.06;;;7.85;76.46
49072;BME280;52656;52.610;10.236;2023-05-24T04:08:09;101584.81;;;7.85;77.00
49072;BME280;52656;52.610;10.236;2023-05-24T04:10:35;101590.03;;;7.89;76.40
49072;BME280;52656;52.610;10.236;2023-05-24T04:13:00;101588.16;;;7.98;77.03
49072;BME280;52656;52.610;10.236;2023-05-24T04:15:26;101576.69;;;8.00;77.80
49072;BME280;52656;52.610;10.236;2023-05-24T04:17:51;101584.50;;;8.06;77.99
49072;BME280;52656;52.610;10.236;2023-05-24T04:20:20;101584.31;;;8.19;77.22
49072;BME280;52656;52.610;10.236;2023-05-24T04:22:49;101585.06;;;8.28;76.72
49072;BME280;52656;52.610;10.236;2023-05-24T04:25:15;101581.41;;;8.35;76.87
49072;BME280;52656;52.610;10.236;2023-05-24T04:27:40;101583.03;;;8.43;76.35
49072;BME280;52656;52.610;10.236;2023-05-24T04:30:06;101588.31;;;8.43;76.54
49072;BME280;52656;52.610;10.236;2023-05-24T04:32:33;101597.88;;;8.51;75.55
49072;BME280;52656;52.610;10.236;2023-05-24T04:34:59;101593.25;;;8.64;75.30
49072;BME280;52656;52.610;10.236;2023-05-24T04:37:26;101592.91;;;8.82;74.73
49072;BME280;52656;52.610;10.236;2023-05-24T04:39:53;101600.50;;;8.99;74.63
49072;BME280;52656;52.610;10.236;2023-05-24T04:42:19;101601.03;;;9.16;73.66
49072;BME280;52656;52.610;10.236;2023-05-24T04:44:44;101600.53;;;9.39;72.69
49072;BME280;52656;52.610;10.236;2023-05-24T04:47:10;101597.78;;;9.44;71.81
49072;BME280;52656;52.610;10.236;2023-05-24T04:49:36;101593.56;;;9.35;72.61
49072;BME280;52656;52.610;10.236;2023-05-24T04:52:03;101596.09;;;9.41;72.24
49072;BME280;52656;52.610;10.236;2023-05-24T04:54:28;101596.94;;;9.43;72.49
49072;BME280;52656;52.610;10.236;2023-05-24T04:56:53;101591.53;;;9.48;72.37
49072;BME280;52656;52.610;10.236;2023-05-24T04:59:19;101592.31;;;9.53;72.91
49072;BME280;52656;52.610;10.236;2023-05-24T05:01:44;101593.72;;;9.69;71.69
49072;BME280;52656;52.610;10.236;2023-05-24T05:04:09;101588.16;;;9.83;71.29
49072;BME280;52656;52.610;10.236;2023-05-24T05:06:35;101589.09;;;10.18;70.25
49072;BME280;52656;52.610;10.236;2023-05-24T05:09:06;101589.44;;;10.40;69.10
49072;BME280;52656;52.610;10.236;2023-05-24T05:11:36;101595.66;;;10.37;69.56
49072;BME280;52656;52.610;10.236;2023-05-24T05:14:02;101603.88;;;10.61;68.97
49072;BME280;52656;52.610;10.236;2023-05-24T05:16:27;101608.16;;;10.66;68.48
49072;BME280;52656;52.610;10.236;2023-05-24T05:18:53;101615.03;;;10.74;68.78
49072;BME280;52656;52.610;10.236;2023-05-24T05:21:18;101618.50;;;10.76;68.82
49072;BME280;52656;52.610;10.236;2023-05-24T05:23:44;101619.16;;;10.84;68.70
49072;BME280;52656;52.610;10.236;2023-05-24T05:26:10;101623.34;;;10.92;68.20
49072;BME280;52656;52.610;10.236;2023-05-24T05:28:35;101619.09;;;10.87;67.89
49072;BME280;52656;52.610;10.236;2023-05-24T05:31:01;101613.75;;;10.88;68.15
49072;BME280;52656;52.610;10.236;2023-05-24T05:33:26;101616.13;;;10.99;68.10
49072;BME280;52656;52.610;10.236;2023-05-24T05:35:51;101619.50;;;11.04;67.56
49072;BME280;52656;52.610;10.236;2023-05-24T05:38:17;101609.91;;;11.00;66.99
49072;BME280;52656;52.610;10.236;2023-05-24T05:40:42;101619.50;;;11.04;67.28
49072;BME280;52656;52.610;10.236;2023-05-24T05:43:08;101608.81;;;11.07;67.48
49072;BME280;52656;52.610;10.236;2023-05-24T05:45:33;101615.50;;;11.22;67.17
49072;BME280;52656;52.610;10.236;2023-05-24T05:47:58;101612.06;;;11.48;65.94
49072;BME280;52656;52.610;10.236;2023-05-24T05:50:24;101604.25;;;11.73;65.55
49072;BME280;52656;52.610;10.236;2023-05-24T05:52:49;101614.25;;;11.93;64.74
49072;BME280;52656;52.610;10.236;2023-05-24T05:55:15;101615.38;;;12.12;64.12
49072;BME280;52656;52.610;10.236;2023-05-24T05:57:40;101613.03;;;12.31;63.79
49072;BME280;52656;52.610;10.236;2023-05-24T06:00:06;101615.84;;;12.27;63.72
49072;BME280;52656;52.610;10.236;2023-05-24T06:02:31;101610.94;;;12.39;63.24
49072;BME280;52656;52.610;10.236;2023-05-24T06:04:57;101610.25;;;12.61;62.90
49072;BME280;52656;52.610;10.236;2023-05-24T06:07:22;101616.28;;;12.66;61.73
49072;BME280;52656;52.610;10.236;2023-05-24T06:09:47;101610.53;;;13.03;60.96
49072;BME280;52656;52.610;10.236;2023-05-24T06:12:13;101602.09;;;13.40;59.71
49072;BME280;52656;52.610;10.236;2023-05-24T06:14:38;101603.75;;;13.66;58.94
49072;BME280;52656;52.610;10.236;2023-05-24T06:17:06;101605.84;;;13.82;58.38
49072;BME280;52656;52.610;10.236;2023-05-24T06:19:32;101603.53;;;14.16;57.28
49072;BME280;52656;52.610;10.236;2023-05-24T06:21:58;101608.84;;;14.16;56.98
49072;BME280;52656;52.610;10.236;2023-05-24T06:24:23;101611.34;;;13.99;57.42
49072;BME280;52656;52.610;10.236;2023-05-24T06:26:50;101615.06;;;13.95;57.90
49072;BME280;52656;52.610;10.236;2023-05-24T06:29:16;101622.88;;;14.00;57.61
49072;BME280;52656;52.610;10.236;2023-05-24T06:31:44;101620.75;;;14.08;56.51
49072;BME280;52656;52.610;10.236;2023-05-24T06:34:11;101629.34;;;13.70;57.35
49072;BME280;52656;52.610;10.236;2023-05-24T06:36:37;101634.63;;;13.72;57.24
49072;BME280;52656;52.610;10.236;2023-05-24T06:39:07;101638.91;;;13.76;57.17
49072;BME280;52656;52.610;10.236;2023-05-24T06:41:32;101639.50;;;13.59;57.13
49072;BME280;52656;52.610;10.236;2023-05-24T06:43:58;101631.34;;;13.87;56.74
49072;BME280;52656;52.610;10.236;2023-05-24T06:46:23;101633.56;;;14.42;55.13
49072;BME280;52656;52.610;10.236;2023-05-24T06:48:48;101637.38;;;14.57;54.61
49072;BME280;52656;52.610;10.236;2023-05-24T06:51:14;101642.13;;;14.50;54.92
49072;BME280;52656;52.610;10.236;2023-05-24T06:53:39;101641.63;;;14.62;54.55
49072;BME280;52656;52.610;10.236;2023-05-24T06:56:05;101633.63;;;15.23;53.33
49072;BME280;52656;52.610;10.236;2023-05-24T06:58:33;101637.19;;;15.62;52.94
49072;BME280;52656;52.610;10.236;2023-05-24T07:00:58;101637.03;;;15.85;52.10
49072;BME280;52656;52.610;10.236;2023-05-24T07:03:24;101637.06;;;16.03;50.90
49072;BME280;52656;52.610;10.236;2023-05-24T07:05:49;101643.31;;;17.09;47.44
49072;BME280;52656;52.610;10.236;2023-05-24T07:08:14;101627.69;;;18.45;45.81
49072;BME280;52656;52.610;10.236;2023-05-24T07:10:40;101634.50;;;18.05;45.72
49072;BME280;52656;52.610;10.236;2023-05-24T07:13:05;101637.53;;;19.49;43.52
49072;BME280;52656;52.610;10.236;2023-05-24T07:15:30;101640.38;;;19.60;43.50
49072;BME280;52656;52.610;10.236;2023-05-24T07:17:55;101633.09;;;18.75;43.66
49072;BME280;52656;52.610;10.236;2023-05-24T07:20:21;101633.63;;;20.50;40.15
49072;BME280;52656;52.610;10.236;2023-05-24T07:22:46;101629.47;;;20.59;41.24
49072;BME280;52656;52.610;10.236;2023-05-24T07:25:11;101626.91;;;21.59;39.48
49072;BME280;52656;52.610;10.236;2023-05-24T07:27:37;101632.50;;;23.58;36.04
49072;BME280;52656;52.610;10.236;2023-05-24T07:30:03;101635.59;;;22.49;36.65
49072;BME280;52656;52.610;10.236;2023-05-24T07:32:28;101648.03;;;20.76;40.43
49072;BME280;52656;52.610;10.236;2023-05-24T07:34:54;101643.44;;;19.68;40.64
49072;BME280;52656;52.610;10.236;2023-05-24T07:37:19;101644.34;;;19.55;43.33
49072;BME280;52656;52.610;10.236;2023-05-24T07:39:48;101646.94;;;18.97;44.05
49072;BME280;52656;52.610;10.236;2023-05-24T07:42:14;101650.81;;;18.63;44.08
49072;BME280;52656;52.610;10.236;2023-05-24T07:44:39;101649.28;;;18.73;43.70
49072;BME280;52656;52.610;10.236;2023-05-24T07:47:04;101652.13;;;18.40;43.88
49072;BME280;52656;52.610;10.236;2023-05-24T07:49:29;101657.09;;;18.92;43.16
49072;BME280;52656;52.610;10.236;2023-05-24T07:51:55;101655.81;;;19.14;42.65
49072;BME280;52656;52.610;10.236;2023-05-24T07:54:23;101664.16;;;19.23;42.89
49072;BME280;52656;52.610;10.236;2023-05-24T07:56:49;101668.06;;;19.03;43.56
49072;BME280;52656;52.610;10.236;2023-05-24T07:59:14;101669.66;;;18.62;44.44
49072;BME280;52656;52.610;10.236;2023-05-24T08:01:39;101671.94;;;18.06;45.22
49072;BME280;52656;52.610;10.236;2023-05-24T08:04:05;101671.97;;;17.90;46.34
49072;BME280;52656;52.610;10.236;2023-05-24T08:06:32;101684.38;;;17.42;47.09
49072;BME280;52656;52.610;10.236;2023-05-24T08:08:59;101680.94;;;17.06;48.18
49072;BME280;52656;52.610;10.236;2023-05-24T08:11:24;101681.13;;;16.66;48.79
49072;BME280;52656;52.610;10.236;2023-05-24T08:13:50;101684.59;;;16.51;49.68
49072;BME280;52656;52.610;10.236;2023-05-24T08:16:15;101684.69;;;15.94;51.24
49072;BME280;52656;52.610;10.236;2023-05-24T08:18:41;101683.38;;;16.22;50.54
49072;BME280;52656;52.610;10.236;2023-05-24T08:21:06;101692.63;;;15.96;52.05
49072;BME280;52656;52.610;10.236;2023-05-24T08:23:32;101696.44;;;16.09;51.69
49072;BME280;52656;52.610;10.236;2023-05-24T08:25:58;101699.81;;;15.75;52.80
49072;BME280;52656;52.610;10.236;2023-05-24T08:28:25;101698.47;;;15.65;52.93
49072;BME280;52656;52.610;10.236;2023-05-24T08:30:50;101695.72;;;15.87;52.44
49072;BME280;52656;52.610;10.236;2023-05-24T08:33:16;101702.78;;;15.88;52.16
49072;BME280;52656;52.610;10.236;2023-05-24T08:35:41;101701.19;;;16.03;51.97
49072;BME280;52656;52.610;10.236;2023-05-24T08:38:07;101707.84;;;15.94;51.50
49072;BME280;52656;52.610;10.236;2023-05-24T08:40:32;101705.53;;;15.86;52.04
49072;BME280;52656;52.610;10.236;2023-05-24T08:42:59;101703.31;;;15.57;52.38
49072;BME280;52656;52.610;10.236;2023-05-24T08:45:25;101701.88;;;15.68;51.94
49072;BME280;52656;52.610;10.236;2023-05-24T08:47:50;101708.84;;;16.10;51.61
49072;BME280;52656;52.610;10.236;2023-05-24T08:50:16;101705.84;;;16.54;50.41
49072;BME280;52656;52.610;10.236;2023-05-24T08:52:42;101706.16;;;16.65;50.40
49072;BME280;52656;52.610;10.236;2023-05-24T08:55:10;101714.41;;;16.97;49.97
49072;BME280;52656;52.610;10.236;2023-05-24T08:57:35;101707.09;;;16.83;50.44
49072;BME280;52656;52.610;10.236;2023-05-24T09:00:08;101711.38;;;16.68;51.55
49072;BME280;52656;52.610;10.236;2023-05-24T09:02:37;101706.53;;;16.94;51.02
49072;BME280;52656;52.610;10.236;2023-05-24T09:05:03;101709.59;;;17.21;51.01
49072;BME280;52656;52.610;10.236;2023-05-24T09:07:30;101708.56;;;17.41;50.85
49072;BME280;52656;52.610;10.236;2023-05-24T09:09:56;101711.53;;;17.35;50.70
49072;BME280;52656;52.610;10.236;2023-05-24T09:12:23;101722.75;;;16.73;50.73
49072;BME280;52656;52.610;10.236;2023-05-24T09:14:50;101723.59;;;16.74;52.28
49072;BME280;52656;52.610;10.236;2023-05-24T09:17:16;101724.09;;;16.82;52.43
49072;BME280;52656;52.610;10.236;2023-05-24T09:19:44;101716.94;;;16.64;52.36
49072;BME280;52656;52.610;10.236;2023-05-24T09:22:14;101709.44;;;16.36;52.84
49072;BME280;52656;52.610;10.236;2023-05-24T09:24:46;101717.13;;;16.42;53.13
49072;BME280;52656;52.610;10.236;2023-05-24T09:27:16;101720.44;;;16.47;52.79
49072;BME280;52656;52.610;10.236;2023-05-24T09:29:43;101716.59;;;16.89;52.22
49072;BME280;52656;52.610;10.236;2023-05-24T09:32:11;101713.22;;;17.02;51.31
49072;BME280;52656;52.610;10.236;2023-05-24T09:34:41;101720.50;;;16.64;50.94
49072;BME280;52656;52.610;10.236;2023-05-24T09:37:11;101713.16;;;17.21;50.59
49072;BME280;52656;52.610;10.236;2023-05-24T09:39:39;101722.56;;;17.46;50.24
49072;BME280;52656;52.610;10.236;2023-05-24T09:42:06;101720.09;;;17.59;49.68
49072;BME280;52656;52.610;10.236;2023-05-24T09:44:31;101727.59;;;17.52;49.26
49072;BME280;52656;52.610;10.236;2023-05-24T09:47:01;101720.66;;;17.48;49.86
49072;BME280;52656;52.610;10.236;2023-05-24T09:49:29;101716.06;;;16.99;49.71
49072;BME280;52656;52.610;10.236;2023-05-24T09:51:54;101722.94;;;16.33;50.96
49072;BME280;52656;52.610;10.236;2023-05-24T09:54:20;101726.78;;;16.63;51.43
49072;BME280;52656;52.610;10.236;2023-05-24T09:56:45;101722.41;;;16.43;51.03
49072;BME280;52656;52.610;10.236;2023-05-24T09:59:11;101723.00;;;17.04;51.18
49072;BME280;52656;52.610;10.236;2023-05-24T10:01:36;101720.47;;;17.35;50.63
49072;BME280;52656;52.610;10.236;2023-05-24T10:04:01;101713.75;;;18.26;48.82
49072;BME280;52656;52.610;10.236;2023-05-24T10:06:32;101715.00;;;19.12;46.88
49072;BME280;52656;52.610;10.236;2023-05-24T10:09:01;101720.13;;;19.01;45.58
49072;BME280;52656;52.610;10.236;2023-05-24T10:11:30;101716.06;;;18.64;46.97
49072;BME280;52656;52.610;10.236;2023-05-24T10:13:56;101728.84;;;18.43;48.13
49072;BME280;52656;52.610;10.236;2023-05-24T10:16:22;101725.66;;;18.36;48.71
49072;BME280;52656;52.610;10.236;2023-05-24T10:18:48;101722.22;;;18.18;49.97
49072;BME280;52656;52.610;10.236;2023-05-24T10:21:14;101730.28;;;18.50;49.27
49072;BME280;52656;52.610;10.236;2023-05-24T10:23:43;101729.91;;;18.72;49.06
49072;BME280;52656;52.610;10.236;2023-05-24T10:26:11;101733.53;;;18.71;48.68
49072;BME280;52656;52.610;10.236;2023-05-24T10:28:41;101736.81;;;18.76;48.73
49072;BME280;52656;52.610;10.236;2023-05-24T10:31:14;101732.09;;;18.49;49.03
49072;BME280;52656;52.610;10.236;2023-05-24T10:33:43;101736.84;;;18.44;49.39
49072;BME280;52656;52.610;10.236;2023-05-24T10:36:10;101741.44;;;18.26;49.91
49072;BME280;52656;52.610;10.236;2023-05-24T10:38:37;101739.66;;;18.25;50.02
49072;BME280;52656;52.610;10.236;2023-05-24T10:41:07;101735.34;;;18.07;50.21
49072;BME280;52656;52.610;10.236;2023-05-24T10:43:37;101729.09;;;17.91;50.61
49072;BME280;52656;52.610;10.236;2023-05-24T10:46:04;101735.75;;;17.84;50.19
49072;BME280;52656;52.610;10.236;2023-05-24T10:48:37;101742.34;;;17.43;50.04
49072;BME280;52656;52.610;10.236;2023-05-24T10:51:37;101747.06;;;17.38;51.51
49072;BME280;52656;52.610;10.236;2023-05-24T10:54:11;101742.03;;;17.49;50.82
49072;BME280;52656;52.610;10.236;2023-05-24T10:56:48;101741.91;;;17.35;50.82
49072;BME280;52656;52.610;10.236;2023-05-24T10:59:34;101744.34;;;17.22;51.46
49072;BME280;52656;52.610;10.236;2023-05-24T11:02:06;101742.84;;;17.17;51.49
49072;BME280;52656;52.610;10.236;2023-05-24T11:04:46;101751.41;;;17.23;51.30
49072;BME280;52656;52.610;10.236;2023-05-24T11:07:14;101746.53;;;17.32;50.75
49072;BME280;52656;52.610;10.236;2023-05-24T11:09:41;101745.91;;;17.94;49.61
49072;BME280;52656;52.610;10.236;2023-05-24T11:12:16;101739.25;;;18.81;47.15
49072;BME280;52656;52.610;10.236;2023-05-24T11:14:46;101737.88;;;19.03;46.69
49072;BME280;52656;52.610;10.236;2023-05-24T11:17:12;101738.00;;;19.16;46.81
49072;BME280;52656;52.610;10.236;2023-05-24T11:19:44;101740.69;;;18.86;47.17
49072;BME280;52656;52.610;10.236;2023-05-24T11:22:12;101742.53;;;18.86;47.16
49072;BME280;52656;52.610;10.236;2023-05-24T11:24:39;101742.38;;;18.73;47.34
49072;BME280;52656;52.610;10.236;2023-05-24T11:27:05;101746.06;;;18.70;47.42
49072;BME280;52656;52.610;10.236;2023-05-24T11:29:31;101737.38;;;18.97;46.81
49072;BME280;52656;52.610;10.236;2023-05-24T11:31:57;101733.97;;;19.39;46.52
49072;BME280;52656;52.610;10.236;2023-05-24T11:34:29;101733.31;;;19.78;45.88
49072;BME280;52656;52.610;10.236;2023-05-24T11:36:55;101736.28;;;20.17;44.33
49072;BME280;52656;52.610;10.236;2023-05-24T11:39:20;101733.69;;;19.72;44.06
49072;BME280;52656;52.610;10.236;2023-05-24T11:41:46;101746.16;;;19.59;44.69
49072;BME280;52656;52.610;10.236;2023-05-24T11:44:13;101742.59;;;19.14;45.50
49072;BME280;52656;52.610;10.236;2023-05-24T11:46:41;101749.16;;;18.94;46.31
49072;BME280;52656;52.610;10.236;2023-05-24T11:49:12;101752.41;;;18.85;46.83
49072;BME280;52656;52.610;10.236;2023-05-24T11:51:37;101742.97;;;19.08;46.64
49072;BME280;52656;52.610;10.236;2023-05-24T11:54:02;101748.16;;;19.56;45.74
49072;BME280;52656;52.610;10.236;2023-05-24T11:56:28;101744.53;;;19.71;45.44
49072;BME280;52656;52.610;10.236;2023-05-24T12:01:34;101744.41;;;20.84;43.93
49072;BME280;52656;52.610;10.236;2023-05-24T12:03:59;101746.38;;;20.82;42.97
49072;BME280;52656;52.610;10.236;2023-05-24T12:06:32;101746.69;;;20.77;41.91
49072;BME280;52656;52.610;10.236;2023-05-24T12:08:58;101744.72;;;21.06;41.87
49072;BME280;52656;52.610;10.236;2023-05-24T12:11:23;101740.22;;;21.19;41.89
49072;BME280;52656;52.610;10.236;2023-05-24T12:13:49;101738.44;;;20.93;42.72
49072;BME280;52656;52.610;10.236;2023-05-24T12:16:15;101736.03;;;20.34;43.46
49072;BME280;52656;52.610;10.236;2023-05-24T12:18:40;101736.75;;;20.09;43.87
49072;BME280;52656;52.610;10.236;2023-05-24T12:21:08;101726.84;;;20.78;42.95
49072;BME280;52656;52.610;10.236;2023-05-24T12:23:35;101727.66;;;20.39;43.96
49072;BME280;52656;52.610;10.236;2023-05-24T12:26:02;101721.53;;;20.64;43.11
49072;BME280;52656;52.610;10.236;2023-05-24T12:28:34;101715.09;;;20.79;42.74
49072;BME280;52656;52.610;10.236;2023-05-24T12:31:01;101716.16;;;20.37;44.07
49072;BME280;52656;52.610;10.236;2023-05-24T12:33:27;101713.75;;;20.86;43.22
49072;BME280;52656;52.610;10.236;2023-05-24T12:35:53;101718.84;;;20.91;43.09
49072;BME280;52656;52.610;10.236;2023-05-24T12:38:18;101724.56;;;19.75;45.08
49072;BME280;52656;52.610;10.236;2023-05-24T12:40:49;101735.22;;;19.91;45.07
49072;BME280;52656;52.610;10.236;2023-05-24T12:43:14;101722.19;;;20.67;43.80
49072;BME280;52656;52.610;10.236;2023-05-24T12:45:40;101726.63;;;20.95;43.25
49072;BME280;52656;52.610;10.236;2023-05-24T12:48:06;101715.53;;;20.73;43.11
49072;BME280;52656;52.610;10.236;2023-05-24T12:50:32;101714.25;;;21.06;42.35